sensor_id;sensor_type;location;lat;lon;timestamp;pressure;altitude;pressure_sealevel;temperature;humidity
50123;BME280;36021;48.670;6.184;2023-03-25T00:01:25;98517.91;;;7.37;100.00
50123;BME280;36021;48.670;6.184;2023-03-25T00:03:54;98506.03;;;7.47;100.00
50123;BME280;36021;48.670;6.184;2023-03-25T00:06:19;98491.81;;;7.45;100.00
50123;BME280;36021;48.670;6.184;2023-03-25T00:08:45;98487.50;;;7.39;100.00
50123;BME280;36021;48.670;6.184;2023-03-25T00:11:11;98507.16;;;7.46;100.00
50123;BME280;36021;48.670;6.184;2023-03-25T00:13:37;98516.44;;;7.50;100.00
50123;BME280;36021;48.670;6.184;2023-03-25T00:16:03;98514.72;;;7.59;100.00
50123;BME280;36021;48.670;6.184;2023-03-25T00:18:30;98522.66;;;7.60;100.00
50123;BME280;36021;48.670;6.184;2023-03-25T00:21:01;98508.13;;;7.60;100.00
50123;BME280;36021;48.670;6.184;2023-03-25T00:23:28;98511.09;;;7.63;100.00
50123;BME280;36021;48.670;6.184;2023-03-25T00:25:55;98508.91;;;7.65;100.00
50123;BME280;36021;48.670;6.184;2023-03-25T00:28:29;98503.09;;;7.72;100.00
50123;BME280;36021;48.670;6.184;2023-03-25T00:30:58;98501.94;;;7.78;100.00
50123;BME280;36021;48.670;6.184;2023-03-25T00:33:26;98498.53;;;7.86;100.00
50123;BME280;36021;48.670;6.184;2023-03-25T00:35:52;98494.69;;;7.87;100.00
50123;BME280;36021;48.670;6.184;2023-03-25T00:38:28;98486.50;;;7.82;100.00
50123;BME280;36021;48.670;6.184;2023-03-25T00:43:35;98502.41;;;7.85;100.00
50123;BME280;36021;48.670;6.184;2023-03-25T00:46:00;98516.75;;;7.77;100.00
50123;BME280;36021;48.670;6.184;2023-03-25T00:48:26;98514.50;;;7.79;100.00
50123;BME280;36021;48.670;6.184;2023-03-25T00:50:52;98516.41;;;7.83;100.00
50123;BME280;36021;48.670;6.184;2023-03-25T00:53:17;98526.94;;;7.71;100.00
50123;BME280;36021;48.670;6.184;2023-03-25T00:55:43;98530.97;;;7.79;100.00
50123;BME280;36021;48.670;6.184;2023-03-25T00:58:12;98525.50;;;7.79;100.00
50123;BME280;36021;48.670;6.184;2023-03-25T01:00:39;98524.88;;;7.87;100.00
50123;BME280;36021;48.670;6.184;2023-03-25T01:03:05;98527.03;;;7.90;100.00
50123;BME280;36021;48.670;6.184;2023-03-25T01:05:31;98522.38;;;7.91;100.00
50123;BME280;36021;48.670;6.184;2023-03-25T01:07:57;98518.75;;;7.95;100.00
50123;BME280;36021;48.670;6.184;2023-03-25T01:10:23;98529.09;;;8.03;100.00
50123;BME280;36021;48.670;6.184;2023-03-25T01:12:48;98524.13;;;8.05;100.00
50123;BME280;36021;48.670;6.184;2023-03-25T01:15:17;98520.88;;;8.03;100.00
50123;BME280;36021;48.670;6.184;2023-03-25T01:17:43;98509.31;;;8.06;100.00
50123;BME280;36021;48.670;6.184;2023-03-25T01:20:09;98518.59;;;8.10;100.00
50123;BME280;36021;48.670;6.184;2023-03-25T01:22:35;98526.25;;;8.13;100.00
50123;BME280;36021;48.670;6.184;2023-03-25T01:25:00;98528.47;;;8.11;100.00
50123;BME280;36021;48.670;6.184;2023-03-25T01:27:28;98529.00;;;8.13;100.00
50123;BME280;36021;48.670;6.184;2023-03-25T01:29:56;98523.78;;;8.12;100.00
50123;BME280;36021;48.670;6.184;2023-03-25T01:32:22;98526.25;;;8.13;100.00
50123;BME280;36021;48.670;6.184;2023-03-25T01:34:47;98522.84;;;8.21;100.00
50123;BME280;36021;48.670;6.184;2023-03-25T01:37:13;98515.16;;;8.23;100.00
50123;BME280;36021;48.670;6.184;2023-03-25T01:39:40;98510.72;;;8.27;100.00
50123;BME280;36021;48.670;6.184;2023-03-25T01:42:06;98499.50;;;8.24;100.00
50123;BME280;36021;48.670;6.184;2023-03-25T01:46:59;98500.09;;;8.21;100.00
50123;BME280;36021;48.670;6.184;2023-03-25T01:49:32;98503.94;;;8.20;100.00
50123;BME280;36021;48.670;6.184;2023-03-25T01:52:16;98501.72;;;8.22;100.00
50123;BME280;36021;48.670;6.184;2023-03-25T01:54:45;98503.63;;;8.21;100.00
50123;BME280;36021;48.670;6.184;2023-03-25T01:57:17;98507.53;;;8.15;100.00
50123;BME280;36021;48.670;6.184;2023-03-25T01:59:46;98515.25;;;8.13;100.00
50123;BME280;36021;48.670;6.184;2023-03-25T02:02:12;98519.66;;;8.14;100.00
50123;BME280;36021;48.670;6.184;2023-03-25T02:04:43;98501.31;;;8.10;100.00
50123;BME280;36021;48.670;6.184;2023-03-25T02:07:16;98507.63;;;8.10;100.00
50123;BME280;36021;48.670;6.184;2023-03-25T02:09:43;98511.53;;;8.04;100.00
50123;BME280;36021;48.670;6.184;2023-03-25T02:12:08;98488.91;;;8.12;100.00
50123;BME280;36021;48.670;6.184;2023-03-25T02:14:36;98496.34;;;8.12;100.00
50123;BME280;36021;48.670;6.184;2023-03-25T02:17:26;98501.81;;;8.12;100.00
50123;BME280;36021;48.670;6.184;2023-03-25T02:28:26;98490.25;;;8.15;100.00
50123;BME280;36021;48.670;6.184;2023-03-25T02:39:14;98485.31;;;8.17;100.00
50123;BME280;36021;48.670;6.184;2023-03-25T02:41:52;98485.59;;;8.15;100.00
50123;BME280;36021;48.670;6.184;2023-03-25T02:47:12;98461.44;;;8.17;100.00
50123;BME280;36021;48.670;6.184;2023-03-25T02:49:43;98484.72;;;8.20;100.00
50123;BME280;36021;48.670;6.184;2023-03-25T02:52:24;98481.97;;;8.20;100.00
50123;BME280;36021;48.670;6.184;2023-03-25T02:54:55;98473.75;;;8.20;100.00
50123;BME280;36021;48.670;6.184;2023-03-25T02:57:32;98473.41;;;8.26;100.00
50123;BME280;36021;48.670;6.184;2023-03-25T03:00:00;98469.53;;;8.27;100.00
50123;BME280;36021;48.670;6.184;2023-03-25T03:02:31;98490.41;;;8.28;100.00
50123;BME280;36021;48.670;6.184;2023-03-25T03:04:59;98476.03;;;8.36;100.00
50123;BME280;36021;48.670;6.184;2023-03-25T03:07:31;98476.41;;;8.30;100.00
50123;BME280;36021;48.670;6.184;2023-03-25T03:10:18;98490.38;;;8.33;100.00
50123;BME280;36021;48.670;6.184;2023-03-25T03:12:55;98549.50;;;8.45;100.00
50123;BME280;36021;48.670;6.184;2023-03-25T03:18:22;98480.28;;;8.48;100.00
50123;BME280;36021;48.670;6.184;2023-03-25T03:20:57;98488.22;;;8.49;100.00
50123;BME280;36021;48.670;6.184;2023-03-25T03:23:55;98489.56;;;8.52;100.00
50123;BME280;36021;48.670;6.184;2023-03-25T03:26:37;98492.31;;;8.52;100.00
50123;BME280;36021;48.670;6.184;2023-03-25T03:29:17;98500.28;;;8.53;100.00
50123;BME280;36021;48.670;6.184;2023-03-25T03:31:57;98478.22;;;8.58;100.00
50123;BME280;36021;48.670;6.184;2023-03-25T03:34:36;98483.13;;;8.61;100.00
50123;BME280;36021;48.670;6.184;2023-03-25T03:37:10;98477.84;;;8.65;100.00
50123;BME280;36021;48.670;6.184;2023-03-25T03:39:37;98489.66;;;8.65;100.00
50123;BME280;36021;48.670;6.184;2023-03-25T03:42:28;98485.00;;;8.66;100.00
50123;BME280;36021;48.670;6.184;2023-03-25T03:45:03;98483.56;;;8.68;100.00
50123;BME280;36021;48.670;6.184;2023-03-25T03:47:37;98488.19;;;8.73;100.00
50123;BME280;36021;48.670;6.184;2023-03-25T03:50:13;98481.78;;;8.77;100.00
50123;BME280;36021;48.670;6.184;2023-03-25T03:52:49;98487.06;;;8.74;100.00
50123;BME280;36021;48.670;6.184;2023-03-25T03:55:22;98485.69;;;8.76;100.00
50123;BME280;36021;48.670;6.184;2023-03-25T03:57:59;98482.97;;;8.71;100.00
50123;BME280;36021;48.670;6.184;2023-03-25T04:00:49;98504.72;;;8.68;100.00
50123;BME280;36021;48.670;6.184;2023-03-25T04:03:25;98508.53;;;8.72;100.00
50123;BME280;36021;48.670;6.184;2023-03-25T04:06:00;98501.56;;;8.79;100.00
50123;BME280;36021;48.670;6.184;2023-03-25T04:08:56;98498.66;;;8.71;100.00
50123;BME280;36021;48.670;6.184;2023-03-25T04:11:36;98513.38;;;8.80;100.00
50123;BME280;36021;48.670;6.184;2023-03-25T04:14:04;98528.28;;;8.74;100.00
50123;BME280;36021;48.670;6.184;2023-03-25T04:16:33;98523.69;;;8.69;100.00
50123;BME280;36021;48.670;6.184;2023-03-25T04:19:05;98523.97;;;8.68;100.00
50123;BME280;36021;48.670;6.184;2023-03-25T04:21:32;98512.31;;;8.76;100.00
50123;BME280;36021;48.670;6.184;2023-03-25T04:23:57;98506.00;;;8.75;100.00
50123;BME280;36021;48.670;6.184;2023-03-25T04:26:29;98505.13;;;8.80;100.00
50123;BME280;36021;48.670;6.184;2023-03-25T04:28:59;98519.53;;;8.72;100.00
50123;BME280;36021;48.670;6.184;2023-03-25T04:31:26;98515.72;;;8.68;100.00
50123;BME280;36021;48.670;6.184;2023-03-25T04:33:55;98524.63;;;8.60;100.00
50123;BME280;36021;48.670;6.184;2023-03-25T04:36:23;98520.47;;;8.62;100.00
50123;BME280;36021;48.670;6.184;2023-03-25T04:38:54;98531.22;;;8.59;100.00
50123;BME280;36021;48.670;6.184;2023-03-25T04:41:22;98525.16;;;8.62;100.00
50123;BME280;36021;48.670;6.184;2023-03-25T04:43:47;98519.38;;;8.63;100.00
50123;BME280;36021;48.670;6.184;2023-03-25T04:46:14;98525.22;;;8.57;100.00
50123;BME280;36021;48.670;6.184;2023-03-25T04:48:41;98531.75;;;8.61;100.00
50123;BME280;36021;48.670;6.184;2023-03-25T04:51:10;98529.00;;;8.61;100.00
50123;BME280;36021;48.670;6.184;2023-03-25T04:53:38;98539.69;;;8.62;100.00
50123;BME280;36021;48.670;6.184;2023-03-25T04:56:06;98538.28;;;8.65;100.00
50123;BME280;36021;48.670;6.184;2023-03-25T04:58:39;98533.38;;;8.62;100.00
50123;BME280;36021;48.670;6.184;2023-03-25T05:01:06;98537.69;;;8.68;100.00
50123;BME280;36021;48.670;6.184;2023-03-25T05:03:36;98519.44;;;8.77;100.00
50123;BME280;36021;48.670;6.184;2023-03-25T05:06:05;98525.09;;;8.67;100.00
50123;BME280;36021;48.670;6.184;2023-03-25T05:08:30;98517.13;;;8.65;100.00
50123;BME280;36021;48.670;6.184;2023-03-25T05:10:56;98516.91;;;8.62;100.00
50123;BME280;36021;48.670;6.184;2023-03-25T05:13:22;98507.25;;;8.64;100.00
50123;BME280;36021;48.670;6.184;2023-03-25T05:15:48;98532.91;;;8.55;100.00
50123;BME280;36021;48.670;6.184;2023-03-25T05:18:14;98509.25;;;8.59;100.00
50123;BME280;36021;48.670;6.184;2023-03-25T05:20:43;98514.81;;;8.54;100.00
50123;BME280;36021;48.670;6.184;2023-03-25T05:23:12;98514.47;;;8.60;100.00
50123;BME280;36021;48.670;6.184;2023-03-25T05:25:41;98501.59;;;8.56;100.00
50123;BME280;36021;48.670;6.184;2023-03-25T05:28:07;98524.16;;;8.53;100.00
50123;BME280;36021;48.670;6.184;2023-03-25T05:30:35;98516.56;;;8.45;100.00
50123;BME280;36021;48.670;6.184;2023-03-25T05:33:11;98522.88;;;8.45;100.00
50123;BME280;36021;48.670;6.184;2023-03-25T05:35:38;98521.69;;;8.51;100.00
50123;BME280;36021;48.670;6.184;2023-03-25T05:38:04;98523.84;;;8.54;100.00
50123;BME280;36021;48.670;6.184;2023-03-25T05:40:31;98514.28;;;8.52;100.00
50123;BME280;36021;48.670;6.184;2023-03-25T05:42:58;98502.25;;;8.48;100.00
50123;BME280;36021;48.670;6.184;2023-03-25T05:45:23;98508.63;;;8.43;100.00
50123;BME280;36021;48.670;6.184;2023-03-25T05:47:49;98513.19;;;8.53;100.00
50123;BME280;36021;48.670;6.184;2023-03-25T05:50:15;98520.31;;;8.54;100.00
50123;BME280;36021;48.670;6.184;2023-03-25T05:52:41;98508.75;;;8.57;100.00
50123;BME280;36021;48.670;6.184;2023-03-25T05:55:16;98520.25;;;8.59;100.00
50123;BME280;36021;48.670;6.184;2023-03-25T05:57:44;98512.22;;;8.62;100.00
50123;BME280;36021;48.670;6.184;2023-03-25T06:00:12;98516.66;;;8.58;100.00
50123;BME280;36021;48.670;6.184;2023-03-25T06:02:40;98522.84;;;8.69;100.00
50123;BME280;36021;48.670;6.184;2023-03-25T06:05:11;98524.38;;;8.80;100.00
50123;BME280;36021;48.670;6.184;2023-03-25T06:07:42;98533.25;;;8.72;100.00
50123;BME280;36021;48.670;6.184;2023-03-25T06:10:09;98540.03;;;8.79;100.00
50123;BME280;36021;48.670;6.184;2023-03-25T06:12:35;98532.38;;;8.76;100.00
50123;BME280;36021;48.670;6.184;2023-03-25T06:15:10;98539.69;;;8.62;100.00
50123;BME280;36021;48.670;6.184;2023-03-25T06:17:37;98535.97;;;8.53;100.00
50123;BME280;36021;48.670;6.184;2023-03-25T06:20:07;98531.44;;;8.44;100.00
50123;BME280;36021;48.670;6.184;2023-03-25T06:22:43;98541.34;;;8.40;100.00
50123;BME280;36021;48.670;6.184;2023-03-25T06:25:17;98532.66;;;8.32;100.00
50123;BME280;36021;48.670;6.184;2023-03-25T06:27:44;98537.06;;;8.28;100.00
50123;BME280;36021;48.670;6.184;2023-03-25T06:30:12;98531.03;;;8.26;100.00
50123;BME280;36021;48.670;6.184;2023-03-25T06:32:38;98555.47;;;8.28;100.00
50123;BME280;36021;48.670;6.184;2023-03-25T06:35:05;98551.94;;;8.22;100.00
50123;BME280;36021;48.670;6.184;2023-03-25T06:37:32;98545.97;;;8.15;100.00
50123;BME280;36021;48.670;6.184;2023-03-25T06:40:01;98534.31;;;8.05;100.00
50123;BME280;36021;48.670;6.184;2023-03-25T06:42:27;98541.16;;;8.02;100.00
50123;BME280;36021;48.670;6.184;2023-03-25T06:45:13;98546.13;;;8.00;100.00
50123;BME280;36021;48.670;6.184;2023-03-25T06:47:44;98535.69;;;8.02;100.00
50123;BME280;36021;48.670;6.184;2023-03-25T06:50:09;98540.59;;;8.05;100.00
50123;BME280;36021;48.670;6.184;2023-03-25T06:52:35;98552.69;;;8.04;100.00
50123;BME280;36021;48.670;6.184;2023-03-25T06:55:02;98553.78;;;8.03;100.00
50123;BME280;36021;48.670;6.184;2023-03-25T06:57:30;98544.47;;;8.04;100.00
50123;BME280;36021;48.670;6.184;2023-03-25T06:59:57;98555.44;;;8.04;100.00
50123;BME280;36021;48.670;6.184;2023-03-25T07:02:22;98556.59;;;7.98;100.00
50123;BME280;36021;48.670;6.184;2023-03-25T07:04:48;98550.81;;;8.00;100.00
50123;BME280;36021;48.670;6.184;2023-03-25T07:07:13;98543.63;;;8.04;100.00
50123;BME280;36021;48.670;6.184;2023-03-25T07:09:39;98535.56;;;8.12;100.00
50123;BME280;36021;48.670;6.184;2023-03-25T07:12:05;98533.31;;;8.19;100.00
50123;BME280;36021;48.670;6.184;2023-03-25T07:14:31;98528.84;;;8.28;100.00
50123;BME280;36021;48.670;6.184;2023-03-25T07:16:57;98540.00;;;8.37;100.00
50123;BME280;36021;48.670;6.184;2023-03-25T07:19:22;98535.75;;;8.50;100.00
50123;BME280;36021;48.670;6.184;2023-03-25T07:21:49;98528.47;;;8.59;100.00
50123;BME280;36021;48.670;6.184;2023-03-25T07:24:15;98534.53;;;8.79;100.00
50123;BME280;36021;48.670;6.184;2023-03-25T07:26:41;98515.53;;;8.83;100.00
50123;BME280;36021;48.670;6.184;2023-03-25T07:29:08;98528.91;;;8.89;100.00
50123;BME280;36021;48.670;6.184;2023-03-25T07:31:34;98532.25;;;9.05;100.00
50123;BME280;36021;48.670;6.184;2023-03-25T07:34:00;98530.38;;;9.01;100.00
50123;BME280;36021;48.670;6.184;2023-03-25T07:36:27;98535.13;;;9.14;100.00
50123;BME280;36021;48.670;6.184;2023-03-25T07:38:52;98533.34;;;9.23;100.00
50123;BME280;36021;48.670;6.184;2023-03-25T07:41:20;98542.34;;;9.28;100.00
50123;BME280;36021;48.670;6.184;2023-03-25T07:44:00;98543.59;;;9.36;100.00
50123;BME280;36021;48.670;6.184;2023-03-25T07:46:30;98535.66;;;9.34;100.00
50123;BME280;36021;48.670;6.184;2023-03-25T07:48:56;98545.00;;;9.33;100.00
50123;BME280;36021;48.670;6.184;2023-03-25T07:51:21;98555.94;;;9.38;100.00
50123;BME280;36021;48.670;6.184;2023-03-25T07:53:47;98555.94;;;9.38;100.00
50123;BME280;36021;48.670;6.184;2023-03-25T07:56:13;98558.25;;;9.31;100.00
50123;BME280;36021;48.670;6.184;2023-03-25T07:58:41;98546.81;;;9.24;100.00
50123;BME280;36021;48.670;6.184;2023-03-25T08:01:08;98560.03;;;9.22;100.00
50123;BME280;36021;48.670;6.184;2023-03-25T08:03:34;98557.94;;;9.14;100.00
50123;BME280;36021;48.670;6.184;2023-03-25T08:06:03;98553.03;;;9.11;100.00
50123;BME280;36021;48.670;6.184;2023-03-25T08:08:28;98551.25;;;9.20;100.00
50123;BME280;36021;48.670;6.184;2023-03-25T08:10:55;98551.56;;;9.19;100.00
50123;BME280;36021;48.670;6.184;2023-03-25T08:13:21;98577.66;;;9.21;100.00
50123;BME280;36021;48.670;6.184;2023-03-25T08:15:46;98543.53;;;9.22;100.00
50123;BME280;36021;48.670;6.184;2023-03-25T08:18:14;98573.31;;;9.85;100.00
50123;BME280;36021;48.670;6.184;2023-03-25T08:20:40;98546.97;;;10.43;100.00
50123;BME280;36021;48.670;6.184;2023-03-25T08:23:06;98551.75;;;11.64;100.00
50123;BME280;36021;48.670;6.184;2023-03-25T08:25:36;98534.50;;;12.82;100.00
50123;BME280;36021;48.670;6.184;2023-03-25T08:28:03;98541.50;;;12.09;100.00
50123;BME280;36021;48.670;6.184;2023-03-25T08:30:29;98534.91;;;12.67;100.00
50123;BME280;36021;48.670;6.184;2023-03-25T08:32:55;98538.19;;;12.29;100.00
50123;BME280;36021;48.670;6.184;2023-03-25T08:35:23;98528.59;;;11.96;100.00
50123;BME280;36021;48.670;6.184;2023-03-25T08:37:49;98551.31;;;11.93;100.00
50123;BME280;36021;48.670;6.184;2023-03-25T08:40:15;98534.50;;;12.42;100.00
50123;BME280;36021;48.670;6.184;2023-03-25T08:42:43;98546.50;;;11.76;100.00
50123;BME280;36021;48.670;6.184;2023-03-25T08:45:09;98541.91;;;12.25;100.00
50123;BME280;36021;48.670;6.184;2023-03-25T08:47:35;98547.09;;;11.15;100.00
50123;BME280;36021;48.670;6.184;2023-03-25T08:50:00;98548.16;;;10.92;100.00
50123;BME280;36021;48.670;6.184;2023-03-25T08:52:26;98551.84;;;10.87;100.00
50123;BME280;36021;48.670;6.184;2023-03-25T08:54:52;98548.19;;;10.65;100.00
50123;BME280;36021;48.670;6.184;2023-03-25T08:57:20;98555.13;;;10.76;100.00
50123;BME280;36021;48.670;6.184;2023-03-25T08:59:47;98566.50;;;11.10;100.00
50123;BME280;36021;48.670;6.184;2023-03-25T09:02:12;98562.47;;;10.80;100.00
50123;BME280;36021;48.670;6.184;2023-03-25T09:04:38;98558.09;;;10.79;100.00
50123;BME280;36021;48.670;6.184;2023-03-25T09:07:05;98558.91;;;10.53;100.00
50123;BME280;36021;48.670;6.184;2023-03-25T09:09:41;98567.66;;;10.55;100.00
50123;BME280;36021;48.670;6.184;2023-03-25T09:12:07;98567.06;;;10.58;100.00
50123;BME280;36021;48.670;6.184;2023-03-25T09:14:33;98566.16;;;10.62;100.00
50123;BME280;36021;48.670;6.184;2023-03-25T09:16:59;98571.94;;;10.61;100.00
50123;BME280;36021;48.670;6.184;2023-03-25T09:19:24;98573.19;;;10.82;100.00
50123;BME280;36021;48.670;6.184;2023-03-25T09:21:52;98577.59;;;10.83;100.00
50123;BME280;36021;48.670;6.184;2023-03-25T09:24:17;98577.59;;;10.83;100.00
50123;BME280;36021;48.670;6.184;2023-03-25T09:26:43;98594.09;;;11.10;100.00
50123;BME280;36021;48.670;6.184;2023-03-25T09:29:08;98580.84;;;10.71;100.00
50123;BME280;36021;48.670;6.184;2023-03-25T09:31:34;98587.19;;;10.72;100.00
50123;BME280;36021;48.670;6.184;2023-03-25T09:34:00;98615.84;;;10.98;100.00
50123;BME280;36021;48.670;6.184;2023-03-25T09:36:26;98611.47;;;10.97;100.00
50123;BME280;36021;48.670;6.184;2023-03-25T09:38:53;98610.63;;;10.96;100.00
50123;BME280;36021;48.670;6.184;2023-03-25T09:44:15;98616.06;;;11.15;100.00
50123;BME280;36021;48.670;6.184;2023-03-25T09:46:43;98617.78;;;11.11;100.00
50123;BME280;36021;48.670;6.184;2023-03-25T09:49:15;98604.44;;;11.40;100.00
50123;BME280;36021;48.670;6.184;2023-03-25T09:51:44;98606.34;;;11.04;100.00
50123;BME280;36021;48.670;6.184;2023-03-25T09:56:43;98601.47;;;11.50;100.00
50123;BME280;36021;48.670;6.184;2023-03-25T09:59:13;98617.84;;;11.33;100.00
50123;BME280;36021;48.670;6.184;2023-03-25T10:04:43;98644.63;;;10.65;100.00
50123;BME280;36021;48.670;6.184;2023-03-25T10:10:14;98670.19;;;9.87;100.00
50123;BME280;36021;48.670;6.184;2023-03-25T10:20:58;98652.16;;;10.45;100.00
50123;BME280;36021;48.670;6.184;2023-03-25T10:23:37;98654.94;;;10.59;100.00
50123;BME280;36021;48.670;6.184;2023-03-25T10:26:27;98657.16;;;10.57;100.00
50123;BME280;36021;48.670;6.184;2023-03-25T10:29:09;98655.78;;;11.01;100.00
50123;BME280;36021;48.670;6.184;2023-03-25T10:31:45;98656.31;;;10.89;100.00
50123;BME280;36021;48.670;6.184;2023-03-25T10:34:16;98637.13;;;11.47;100.00
50123;BME280;36021;48.670;6.184;2023-03-25T10:36:46;98652.66;;;11.57;100.00
50123;BME280;36021;48.670;6.184;2023-03-25T10:39:17;98648.03;;;12.01;100.00
50123;BME280;36021;48.670;6.184;2023-03-25T10:41:56;98634.41;;;11.83;100.00
50123;BME280;36021;48.670;6.184;2023-03-25T10:44:25;98635.56;;;12.04;100.00
50123;BME280;36021;48.670;6.184;2023-03-25T10:46:56;98637.34;;;12.53;100.00
50123;BME280;36021;48.670;6.184;2023-03-25T10:49:29;98621.25;;;14.02;100.00
50123;BME280;36021;48.670;6.184;2023-03-25T10:51:55;98629.47;;;16.75;100.00
50123;BME280;36021;48.670;6.184;2023-03-25T10:54:30;98615.09;;;15.66;100.00
50123;BME280;36021;48.670;6.184;2023-03-25T10:57:02;98612.50;;;18.29;100.00
50123;BME280;36021;48.670;6.184;2023-03-25T10:59:34;98611.47;;;19.93;100.00
50123;BME280;36021;48.670;6.184;2023-03-25T11:02:28;98590.63;;;18.58;100.00
50123;BME280;36021;48.670;6.184;2023-03-25T11:04:57;98612.22;;;19.40;100.00
50123;BME280;36021;48.670;6.184;2023-03-25T11:10:28;98607.91;;;17.44;100.00
50123;BME280;36021;48.670;6.184;2023-03-25T11:12:54;98618.34;;;17.47;100.00
50123;BME280;36021;48.670;6.184;2023-03-25T11:15:25;98622.78;;;18.12;100.00
50123;BME280;36021;48.670;6.184;2023-03-25T11:18:01;98625.69;;;18.04;100.00
50123;BME280;36021;48.670;6.184;2023-03-25T11:20:38;98621.53;;;19.12;100.00
50123;BME280;36021;48.670;6.184;2023-03-25T11:23:15;98627.06;;;18.50;100.00
50123;BME280;36021;48.670;6.184;2023-03-25T11:25:44;98640.72;;;15.50;100.00
50123;BME280;36021;48.670;6.184;2023-03-25T11:28:29;98639.19;;;15.24;100.00
50123;BME280;36021;48.670;6.184;2023-03-25T11:31:10;98643.03;;;15.02;100.00
50123;BME280;36021;48.670;6.184;2023-03-25T11:33:37;98652.69;;;15.34;100.00
50123;BME280;36021;48.670;6.184;2023-03-25T11:38:51;98630.44;;;16.91;100.00
50123;BME280;36021;48.670;6.184;2023-03-25T11:41:19;98621.88;;;15.97;100.00
50123;BME280;36021;48.670;6.184;2023-03-25T11:43:46;98639.50;;;16.01;100.00
50123;BME280;36021;48.670;6.184;2023-03-25T11:46:18;98635.69;;;16.59;100.00
50123;BME280;36021;48.670;6.184;2023-03-25T11:48:55;98613.97;;;17.58;100.00
50123;BME280;36021;48.670;6.184;2023-03-25T11:51:39;98628.19;;;16.39;100.00
50123;BME280;36021;48.670;6.184;2023-03-25T11:54:07;98619.22;;;17.60;100.00
50123;BME280;36021;48.670;6.184;2023-03-25T11:56:40;98591.28;;;17.72;100.00
50123;BME280;36021;48.670;6.184;2023-03-25T11:59:21;98607.66;;;17.74;100.00
50123;BME280;36021;48.670;6.184;2023-03-25T12:01:50;98589.06;;;17.90;99.17
50123;BME280;36021;48.670;6.184;2023-03-25T12:04:21;98614.56;;;18.32;89.79
50123;BME280;36021;48.670;6.184;2023-03-25T12:06:55;98605.38;;;19.88;76.11
50123;BME280;36021;48.670;6.184;2023-03-25T12:09:27;98611.78;;;20.88;71.32
50123;BME280;36021;48.670;6.184;2023-03-25T12:20:24;98602.16;;;20.24;64.82
50123;BME280;36021;48.670;6.184;2023-03-25T12:23:00;98587.63;;;20.79;62.14
50123;BME280;36021;48.670;6.184;2023-03-25T12:26:05;98592.28;;;19.57;70.70
50123;BME280;36021;48.670;6.184;2023-03-25T12:34:17;98578.97;;;20.88;65.55
50123;BME280;36021;48.670;6.184;2023-03-25T12:37:21;98575.19;;;19.77;73.44
50123;BME280;36021;48.670;6.184;2023-03-25T12:40:18;98566.91;;;19.46;81.11
50123;BME280;36021;48.670;6.184;2023-03-25T12:46:06;98574.16;;;19.86;77.52
50123;BME280;36021;48.670;6.184;2023-03-25T13:05:31;98550.72;;;19.55;76.22
50123;BME280;36021;48.670;6.184;2023-03-25T13:08:05;98560.06;;;18.65;89.80
50123;BME280;36021;48.670;6.184;2023-03-25T13:10:35;98567.47;;;18.73;94.14
50123;BME280;36021;48.670;6.184;2023-03-25T13:13:17;98567.88;;;19.38;89.19
50123;BME280;36021;48.670;6.184;2023-03-25T13:15:46;98567.03;;;17.60;88.43
50123;BME280;36021;48.670;6.184;2023-03-25T13:18:24;98555.91;;;18.44;86.25
50123;BME280;36021;48.670;6.184;2023-03-25T13:21:01;98550.09;;;18.96;82.61
50123;BME280;36021;48.670;6.184;2023-03-25T13:23:28;98555.56;;;18.45;86.03
50123;BME280;36021;48.670;6.184;2023-03-25T13:26:05;98567.09;;;19.72;78.76
50123;BME280;36021;48.670;6.184;2023-03-25T13:28:43;98561.63;;;18.94;81.54
50123;BME280;36021;48.670;6.184;2023-03-25T13:31:17;98552.94;;;17.17;100.00
50123;BME280;36021;48.670;6.184;2023-03-25T13:33:47;98551.78;;;17.30;100.00
50123;BME280;36021;48.670;6.184;2023-03-25T13:38:49;98531.31;;;19.12;92.86
50123;BME280;36021;48.670;6.184;2023-03-25T13:41:22;98546.91;;;20.40;82.70
50123;BME280;36021;48.670;6.184;2023-03-25T13:44:07;98567.50;;;19.55;89.25
50123;BME280;36021;48.670;6.184;2023-03-25T13:46:37;98562.78;;;19.09;92.86
50123;BME280;36021;48.670;6.184;2023-03-25T13:49:19;98576.81;;;17.66;100.00
50123;BME280;36021;48.670;6.184;2023-03-25T13:51:46;98566.63;;;17.86;100.00
50123;BME280;36021;48.670;6.184;2023-03-25T14:00:33;98559.13;;;19.94;92.23
50123;BME280;36021;48.670;6.184;2023-03-25T14:05:49;98541.84;;;20.26;84.55
50123;BME280;36021;48.670;6.184;2023-03-25T14:13:38;98560.25;;;20.69;77.54
50123;BME280;36021;48.670;6.184;2023-03-25T14:16:07;98562.22;;;20.46;80.37
50123;BME280;36021;48.670;6.184;2023-03-25T14:18:46;98549.16;;;19.23;90.00
50123;BME280;36021;48.670;6.184;2023-03-25T14:24:17;98564.38;;;18.47;100.00
50123;BME280;36021;48.670;6.184;2023-03-25T14:26:53;98546.88;;;18.35;100.00
50123;BME280;36021;48.670;6.184;2023-03-25T14:29:38;98547.91;;;17.87;100.00
50123;BME280;36021;48.670;6.184;2023-03-25T14:56:35;98542.38;;;16.62;100.00
50123;BME280;36021;48.670;6.184;2023-03-25T14:59:08;98538.31;;;16.59;100.00
50123;BME280;36021;48.670;6.184;2023-03-25T15:01:36;98527.31;;;16.63;100.00
50123;BME280;36021;48.670;6.184;2023-03-25T15:04:11;98524.41;;;16.59;100.00
50123;BME280;36021;48.670;6.184;2023-03-25T15:06:39;98531.59;;;17.21;100.00
50123;BME280;36021;48.670;6.184;2023-03-25T15:09:08;98525.50;;;17.31;100.00
50123;BME280;36021;48.670;6.184;2023-03-25T15:11:38;98544.13;;;16.91;100.00
50123;BME280;36021;48.670;6.184;2023-03-25T15:14:12;98539.97;;;16.85;100.00
50123;BME280;36021;48.670;6.184;2023-03-25T15:19:17;98531.84;;;16.23;100.00
50123;BME280;36021;48.670;6.184;2023-03-25T15:24:36;98533.16;;;15.72;100.00
50123;BME280;36021;48.670;6.184;2023-03-25T15:30:02;98516.25;;;14.94;100.00
50123;BME280;36021;48.670;6.184;2023-03-25T15:32:48;98548.84;;;14.30;100.00
50123;BME280;36021;48.670;6.184;2023-03-25T15:35:34;98570.13;;;13.74;100.00